createdAt,value
2017-04-19T00:00:11.973Z,1.50
2017-04-19T00:01:11.599Z,1.50
2017-04-19T00:02:11.296Z,1.50
2017-04-19T00:03:10.965Z,1.50
2017-04-19T00:04:10.589Z,1.50
2017-04-19T00:05:10.217Z,1.50
2017-04-19T00:06:09.828Z,1.50
2017-04-19T00:07:09.478Z,1.50
2017-04-19T00:08:09.244Z,1.50
2017-04-19T00:09:08.868Z,1.50
2017-04-19T00:10:08.518Z,1.50
2017-04-19T00:11:08.123Z,1.50
2017-04-19T00:12:07.780Z,1.40
2017-04-19T00:13:07.378Z,1.40
2017-04-19T00:14:07.072Z,1.40
2017-04-19T00:15:06.719Z,1.40
2017-04-19T00:16:06.415Z,1.40
2017-04-19T00:17:06.076Z,1.40
2017-04-19T00:18:05.716Z,1.40
2017-04-19T00:19:05.337Z,1.30
2017-04-19T00:20:05.116Z,1.30
2017-04-19T00:21:04.831Z,1.30
2017-04-19T00:22:04.480Z,1.30
2017-04-19T00:23:04.090Z,1.30
2017-04-19T00:24:03.707Z,1.40
2017-04-19T00:25:04.071Z,1.40
2017-04-19T00:26:03.843Z,1.40
2017-04-19T00:27:03.480Z,1.40
2017-04-19T00:28:03.106Z,1.40
2017-04-19T00:29:02.721Z,1.40
2017-04-19T00:30:02.344Z,1.40
2017-04-19T00:31:01.947Z,1.40
2017-04-19T00:32:01.651Z,1.40
2017-04-19T00:33:01.264Z,1.40
2017-04-19T00:34:00.871Z,1.40
2017-04-19T00:35:00.597Z,1.30
2017-04-19T00:36:00.205Z,1.30
2017-04-19T00:36:59.815Z,1.30
2017-04-19T00:37:59.539Z,1.30
2017-04-19T00:38:59.188Z,1.20
2017-04-19T00:39:59.544Z,1.20
2017-04-19T00:40:59.155Z,1.20
2017-04-19T00:41:58.769Z,1.20
2017-04-19T00:42:58.490Z,1.20
2017-04-19T00:43:58.177Z,1.20
2017-04-19T00:44:57.805Z,1.20
2017-04-19T00:45:57.468Z,1.20
2017-04-19T00:46:57.181Z,1.10
2017-04-19T00:47:56.815Z,1.10
2017-04-19T00:48:56.425Z,1.10
2017-04-19T00:49:56.076Z,1.10
2017-04-19T00:50:55.700Z,1.10
2017-04-19T00:51:55.323Z,1.20
2017-04-19T00:52:54.932Z,1.20
2017-04-19T00:53:54.561Z,1.10
2017-04-19T00:54:54.181Z,1.10
2017-04-19T00:55:53.904Z,1.10
2017-04-19T00:56:53.528Z,1.00
2017-04-19T00:57:53.248Z,1.00
2017-04-19T00:58:52.871Z,1.00
2017-04-19T00:59:52.487Z,1.00
2017-04-19T01:00:52.242Z,1.00
2017-04-19T01:01:52.646Z,1.00
2017-04-19T01:02:52.298Z,1.00
2017-04-19T01:03:51.933Z,1.00
2017-04-19T01:04:51.647Z,0.90
2017-04-19T01:05:51.321Z,0.90
2017-04-19T01:06:51.044Z,0.90
2017-04-19T01:07:50.759Z,0.90
2017-04-19T01:08:50.384Z,0.90
2017-04-19T01:09:50.011Z,0.90
2017-04-19T01:10:49.736Z,0.90
2017-04-19T01:11:49.355Z,0.90
2017-04-19T01:12:48.982Z,0.90
2017-04-19T01:13:48.669Z,0.80
2017-04-19T01:14:48.301Z,0.90
2017-04-19T01:15:47.967Z,0.80
2017-04-19T01:16:47.607Z,0.80
2017-04-19T01:17:47.225Z,0.80
2017-04-19T01:18:46.848Z,0.80
2017-04-19T01:19:46.611Z,0.80
2017-04-19T01:20:46.309Z,0.80
2017-04-19T01:21:46.007Z,0.80
2017-04-19T01:22:46.412Z,0.80
2017-04-19T01:23:46.076Z,0.80
2017-04-19T01:24:46.520Z,0.80
2017-04-19T01:25:46.226Z,0.80
2017-04-19T01:26:45.935Z,0.80
2017-04-19T01:27:46.361Z,0.70
2017-04-19T01:28:45.979Z,0.70
2017-04-19T01:29:45.603Z,0.70
2017-04-19T01:30:45.288Z,0.70
2017-04-19T01:31:44.925Z,0.80
2017-04-19T01:32:44.535Z,0.70
2017-04-19T01:33:44.166Z,0.70
2017-04-19T01:34:43.888Z,0.70
2017-04-19T01:35:43.628Z,0.70
2017-04-19T01:36:43.301Z,0.70
2017-04-19T01:37:42.927Z,0.70
2017-04-19T01:38:42.575Z,0.70
2017-04-19T01:39:42.304Z,0.60
2017-04-19T01:40:42.016Z,0.60
2017-04-19T01:41:41.683Z,0.60
2017-04-19T01:42:41.412Z,0.60
2017-04-19T01:43:41.035Z,0.60
2017-04-19T01:44:40.688Z,0.60
2017-04-19T01:45:40.344Z,0.60
2017-04-19T01:46:39.987Z,0.60
2017-04-19T01:47:39.629Z,0.60
2017-04-19T01:48:39.312Z,0.50
2017-04-19T01:49:38.936Z,0.50
2017-04-19T01:50:38.612Z,0.50
2017-04-19T01:51:38.235Z,0.50
2017-04-19T01:52:37.876Z,0.50
2017-04-19T01:53:37.539Z,0.50
2017-04-19T01:54:37.262Z,0.50
2017-04-19T01:55:36.945Z,0.50
2017-04-19T01:56:36.555Z,0.50
2017-04-19T01:57:36.326Z,0.50
2017-04-19T01:58:36.716Z,0.50
2017-04-19T01:59:36.352Z,0.50
2017-04-19T02:00:36.055Z,0.50
2017-04-19T02:01:35.726Z,0.50
2017-04-19T02:02:35.397Z,0.50
2017-04-19T02:03:35.142Z,0.50
2017-04-19T02:04:34.790Z,0.50
2017-04-19T02:05:38.620Z,0.50
2017-04-19T02:06:38.299Z,0.50
2017-04-19T02:07:43.307Z,0.40
2017-04-19T02:08:42.981Z,0.40
2017-04-19T02:09:42.624Z,0.40
2017-04-19T02:10:42.284Z,0.50
2017-04-19T02:11:41.903Z,0.50
2017-04-19T02:12:41.612Z,0.40
2017-04-19T02:13:41.257Z,0.40
2017-04-19T02:14:40.977Z,0.40
2017-04-19T02:15:40.635Z,0.40
2017-04-19T02:16:40.509Z,0.40
2017-04-19T02:17:40.170Z,0.30
2017-04-19T02:18:40.606Z,0.30
2017-04-19T02:19:40.300Z,0.30
2017-04-19T02:20:39.979Z,0.30
2017-04-19T02:21:39.719Z,0.30
2017-04-19T02:22:39.380Z,0.30
2017-04-19T02:23:39.000Z,0.20
2017-04-19T02:24:38.673Z,0.20
2017-04-19T02:25:38.326Z,0.20
2017-04-19T02:26:38.711Z,0.10
2017-04-19T02:27:38.350Z,0.10
2017-04-19T02:28:38.032Z,0.10
2017-04-19T02:29:38.423Z,0.10
2017-04-19T02:30:38.112Z,0.10
2017-04-19T02:31:37.729Z,0.10
2017-04-19T02:32:37.359Z,0.10
2017-04-19T02:33:36.984Z,0.00
2017-04-19T02:34:36.673Z,0.10
2017-04-19T02:35:36.281Z,0.00
2017-04-19T02:36:35.906Z,0.10
2017-04-19T02:37:35.521Z,0.10
2017-04-19T02:38:35.146Z,0.10
2017-04-19T02:39:34.772Z,0.00
2017-04-19T02:40:34.451Z,0.00
2017-04-19T02:41:34.071Z,0.10
2017-04-19T02:42:33.817Z,0.00
2017-04-19T02:43:33.437Z,0.00
2017-04-19T02:44:33.385Z,0.00
2017-04-19T02:45:33.003Z,0.00
2017-04-19T02:46:32.667Z,0.10
2017-04-19T02:47:32.346Z,0.00
2017-04-19T02:48:32.981Z,0.00
2017-04-19T02:49:32.603Z,0.00
2017-04-19T02:50:32.232Z,0.00
2017-04-19T02:51:31.868Z,0.00
2017-04-19T02:52:31.537Z,-0.10
2017-04-19T02:53:31.176Z,-0.10
2017-04-19T02:54:30.805Z,-0.10
2017-04-19T02:55:30.441Z,-0.10
2017-04-19T02:56:30.149Z,-0.10
2017-04-19T02:58:33.767Z,-0.10
2017-04-19T02:59:33.387Z,-0.10
2017-04-19T03:00:33.028Z,-0.10
2017-04-19T03:01:32.703Z,-0.10
2017-04-19T03:02:32.438Z,-0.10
2017-04-19T03:03:32.262Z,-0.10
2017-04-19T03:04:31.930Z,-0.20
2017-04-19T03:05:32.308Z,-0.20
2017-04-19T03:06:32.672Z,-0.20
2017-04-19T03:07:32.349Z,-0.20
2017-04-19T03:08:31.984Z,-0.20
2017-04-19T03:09:31.648Z,-0.20
2017-04-19T03:10:31.423Z,-0.10
2017-04-19T03:11:31.153Z,-0.20
2017-04-19T03:12:31.021Z,-0.10
2017-04-19T03:13:30.656Z,-0.10
2017-04-19T03:14:30.662Z,-0.10
2017-04-19T03:15:30.328Z,-0.10
2017-04-19T03:16:29.950Z,-0.10
2017-04-19T03:17:30.315Z,-0.10
2017-04-19T03:18:29.946Z,-0.20
2017-04-19T03:19:29.660Z,-0.20
2017-04-19T03:20:29.279Z,-0.20
2017-04-19T03:21:28.941Z,-0.20
2017-04-19T03:22:28.653Z,-0.30
2017-04-19T03:23:28.346Z,-0.20
2017-04-19T03:24:28.724Z,-0.30
2017-04-19T03:25:28.369Z,-0.30
2017-04-19T03:26:28.006Z,-0.30
2017-04-19T03:27:27.758Z,-0.30
2017-04-19T03:28:27.468Z,-0.30
2017-04-19T03:29:27.140Z,-0.40
2017-04-19T03:30:26.854Z,-0.40
2017-04-19T03:31:26.488Z,-0.30
2017-04-19T03:32:26.109Z,-0.30
2017-04-19T03:33:25.816Z,-0.30
2017-04-19T03:34:25.545Z,-0.30
2017-04-19T03:35:25.173Z,-0.30
2017-04-19T03:36:24.792Z,-0.40
2017-04-19T03:37:24.422Z,-0.40
2017-04-19T03:38:24.134Z,-0.40
2017-04-19T03:39:24.545Z,-0.40
2017-04-19T03:40:24.176Z,-0.40
2017-04-19T03:41:23.804Z,-0.40
2017-04-19T03:42:23.439Z,-0.40
2017-04-19T03:43:23.090Z,-0.40
2017-04-19T03:44:22.717Z,-0.40
2017-04-19T03:45:22.401Z,-0.40
2017-04-19T03:46:22.130Z,-0.40
2017-04-19T03:47:22.496Z,-0.40
2017-04-19T03:48:22.139Z,-0.40
2017-04-19T03:49:21.768Z,-0.40
2017-04-19T03:50:21.404Z,-0.40
2017-04-19T03:51:21.088Z,-0.40
2017-04-19T03:52:20.699Z,-0.40
2017-04-19T03:53:20.312Z,-0.40
2017-04-19T03:54:19.938Z,-0.40
2017-04-19T03:55:19.563Z,-0.40
2017-04-19T03:56:19.209Z,-0.40
2017-04-19T03:57:18.912Z,-0.40
2017-04-19T03:58:18.920Z,-0.40
2017-04-19T03:59:18.550Z,-0.50
2017-04-19T04:00:18.196Z,-0.40
2017-04-19T04:01:17.912Z,-0.40
2017-04-19T04:02:18.329Z,-0.40
2017-04-19T04:03:18.713Z,-0.50
2017-04-19T04:04:18.346Z,-0.40
2017-04-19T04:05:17.963Z,-0.40
2017-04-19T04:06:17.605Z,-0.40
2017-04-19T04:07:17.257Z,-0.30
2017-04-19T04:08:16.928Z,-0.30
2017-04-19T04:09:16.546Z,-0.40
2017-04-19T04:10:16.246Z,-0.30
2017-04-19T04:11:15.862Z,-0.30
2017-04-19T04:12:15.488Z,-0.40
2017-04-19T04:13:15.119Z,-0.40
2017-04-19T04:14:14.785Z,-0.30
2017-04-19T04:15:14.507Z,-0.30
2017-04-19T04:16:14.123Z,-0.30
2017-04-19T04:17:13.803Z,-0.20
2017-04-19T04:18:13.463Z,-0.10
2017-04-19T04:19:13.080Z,0.00
2017-04-19T04:20:12.782Z,0.10
2017-04-19T04:21:12.425Z,0.10
2017-04-19T04:22:12.069Z,0.20
2017-04-19T04:23:11.786Z,0.20
2017-04-19T04:24:11.409Z,0.30
2017-04-19T04:25:11.037Z,0.30
2017-04-19T04:26:10.784Z,0.30
2017-04-19T04:27:10.404Z,0.30
2017-04-19T04:28:10.024Z,0.30
2017-04-19T04:29:09.649Z,0.40
2017-04-19T04:30:09.276Z,0.50
2017-04-19T04:31:08.891Z,0.60
2017-04-19T04:32:08.552Z,0.70
2017-04-19T04:33:08.194Z,0.90
2017-04-19T04:34:07.862Z,1.00
2017-04-19T04:35:07.569Z,1.00
2017-04-19T04:36:07.208Z,1.00
2017-04-19T04:37:06.835Z,1.00
2017-04-19T04:38:06.513Z,0.90
2017-04-19T04:39:06.381Z,0.90
2017-04-19T04:40:05.992Z,0.70
2017-04-19T04:41:05.629Z,0.70
2017-04-19T04:42:05.260Z,0.60
2017-04-19T04:43:04.865Z,0.60
2017-04-19T04:44:04.531Z,0.60
2017-04-19T04:46:33.301Z,0.60
2017-04-19T04:47:33.014Z,0.60
2017-04-19T04:48:32.695Z,0.60
2017-04-19T04:49:32.361Z,0.70
2017-04-19T04:50:32.002Z,0.80
2017-04-19T04:51:31.620Z,1.10
2017-04-19T04:52:31.297Z,1.30
2017-04-19T04:53:31.002Z,1.60
2017-04-19T04:54:30.605Z,1.90
2017-04-19T04:55:30.270Z,2.00
2017-04-19T04:56:29.921Z,2.30
2017-04-19T04:57:29.569Z,2.50
2017-04-19T04:58:29.289Z,2.70
2017-04-19T04:59:28.922Z,2.80
2017-04-19T05:00:28.553Z,3.00
2017-04-19T05:01:28.568Z,3.20
2017-04-19T05:02:28.299Z,3.20
2017-04-19T05:03:28.034Z,3.10
2017-04-19T05:04:27.784Z,3.10
2017-04-19T05:05:27.448Z,3.20
2017-04-19T05:06:27.093Z,3.30
2017-04-19T05:07:26.764Z,3.30
2017-04-19T05:08:26.375Z,3.40
2017-04-19T05:09:26.016Z,3.50
2017-04-19T05:10:25.651Z,3.60
2017-04-19T05:11:25.368Z,3.50
2017-04-19T05:12:25.008Z,3.50
2017-04-19T05:13:24.676Z,3.60
2017-04-19T05:14:24.318Z,3.50
2017-04-19T05:15:23.947Z,3.30
2017-04-19T05:16:23.584Z,3.00
2017-04-19T05:17:23.207Z,2.70
2017-04-19T05:18:23.090Z,2.50
2017-04-19T05:19:23.111Z,2.30
2017-04-19T05:20:22.751Z,2.30
2017-04-19T05:21:22.416Z,2.30
2017-04-19T05:22:22.076Z,2.40
2017-04-19T05:23:21.912Z,2.40
2017-04-19T05:24:22.273Z,2.40
2017-04-19T05:25:22.020Z,2.40
2017-04-19T05:26:21.650Z,2.50
2017-04-19T05:27:21.274Z,2.40
2017-04-19T05:28:20.892Z,2.30
2017-04-19T05:29:21.016Z,2.30
2017-04-19T05:30:20.633Z,2.30
2017-04-19T05:31:20.329Z,2.30
2017-04-19T05:32:20.058Z,2.30
2017-04-19T05:33:19.706Z,2.40
2017-04-19T05:34:19.344Z,2.40
2017-04-19T05:35:19.009Z,2.30
2017-04-19T05:36:19.225Z,2.50
2017-04-19T05:37:18.992Z,2.80
2017-04-19T05:38:18.616Z,3.10
2017-04-19T05:39:18.264Z,3.50
2017-04-19T05:40:17.888Z,3.80
2017-04-19T05:41:17.507Z,4.10
2017-04-19T05:42:17.145Z,4.60
2017-04-19T05:43:16.839Z,4.80
2017-04-19T05:44:16.541Z,5.00
2017-04-19T05:45:16.173Z,4.80
2017-04-19T05:46:15.892Z,4.90
2017-04-19T05:47:16.348Z,5.00
2017-04-19T05:48:16.005Z,4.90
2017-04-19T05:49:15.941Z,4.70
2017-04-19T05:50:15.539Z,4.70
2017-04-19T05:51:15.398Z,4.30
2017-04-19T05:52:15.040Z,4.20
2017-04-19T05:53:14.685Z,4.00
2017-04-19T05:54:14.326Z,4.00
2017-04-19T05:55:13.993Z,4.20
2017-04-19T05:56:13.736Z,4.00
2017-04-19T05:57:14.104Z,3.70
2017-04-19T05:58:13.734Z,3.50
2017-04-19T05:59:14.116Z,3.50
2017-04-19T06:00:14.596Z,3.40
2017-04-19T06:01:14.275Z,3.50
2017-04-19T06:02:13.904Z,3.50
2017-04-19T06:03:13.517Z,3.60
2017-04-19T06:04:13.152Z,3.60
2017-04-19T06:05:12.780Z,3.70
2017-04-19T06:06:12.490Z,3.80
2017-04-19T06:07:12.120Z,3.90
2017-04-19T06:08:12.489Z,4.00
2017-04-19T06:09:12.122Z,3.90
2017-04-19T06:10:12.548Z,3.70
2017-04-19T06:11:12.235Z,3.70
2017-04-19T06:12:11.900Z,3.80
2017-04-19T06:13:11.584Z,3.60
2017-04-19T06:14:11.203Z,3.80
2017-04-19T06:15:10.819Z,3.90
2017-04-19T06:16:10.440Z,4.00
2017-04-19T06:17:10.109Z,3.80
2017-04-19T06:18:09.864Z,4.00
2017-04-19T06:19:09.504Z,4.00
2017-04-19T06:20:09.116Z,4.00
2017-04-19T06:21:08.750Z,4.10
2017-04-19T06:22:08.369Z,4.00
2017-04-19T06:23:07.991Z,3.80
2017-04-19T06:24:07.922Z,3.80
2017-04-19T06:25:07.541Z,3.80
2017-04-19T06:26:07.246Z,3.70
2017-04-19T06:27:06.875Z,3.50
2017-04-19T06:28:06.491Z,3.60
2017-04-19T06:29:06.096Z,3.50
2017-04-19T06:30:05.793Z,3.50
2017-04-19T06:31:05.408Z,3.60
2017-04-19T06:32:05.043Z,3.60
2017-04-19T06:33:04.664Z,3.60
2017-04-19T06:34:04.283Z,3.60
2017-04-19T06:35:03.901Z,3.70
2017-04-19T06:36:03.580Z,3.70
2017-04-19T06:37:03.314Z,3.70
2017-04-19T06:38:02.940Z,3.80
2017-04-19T06:39:02.572Z,3.80
2017-04-19T06:40:02.191Z,3.80
2017-04-19T06:41:01.822Z,3.70
2017-04-19T06:42:01.516Z,3.60
2017-04-19T06:43:01.148Z,3.60
2017-04-19T06:44:00.868Z,3.60
2017-04-19T06:45:00.468Z,3.60
2017-04-19T06:46:00.152Z,3.50
2017-04-19T06:47:00.604Z,3.40
2017-04-19T06:48:00.269Z,3.40
2017-04-19T06:48:59.888Z,3.30
2017-04-19T06:49:59.521Z,3.30
2017-04-19T06:50:59.139Z,3.30
2017-04-19T06:51:58.774Z,3.30
2017-04-19T06:52:58.388Z,3.30
2017-04-19T06:53:58.090Z,3.30
2017-04-19T06:54:57.735Z,3.40
2017-04-19T06:55:57.432Z,3.40
2017-04-19T06:56:57.089Z,3.30
2017-04-19T06:57:56.728Z,3.30
2017-04-19T06:58:56.397Z,3.30
2017-04-19T06:59:56.093Z,3.30
2017-04-19T07:00:55.748Z,3.20
2017-04-19T07:01:55.433Z,3.40
2017-04-19T07:03:03.900Z,3.40
2017-04-19T07:04:03.667Z,3.50
2017-04-19T07:05:04.437Z,3.60
2017-04-19T07:06:04.399Z,3.70
2017-04-19T07:07:04.064Z,3.70
2017-04-19T07:08:03.996Z,3.60
2017-04-19T07:09:04.828Z,3.60
2017-04-19T07:10:04.500Z,3.70
2017-04-19T07:11:04.132Z,3.80
2017-04-19T07:12:03.795Z,3.90
2017-04-19T07:13:03.420Z,4.00
2017-04-19T07:14:03.047Z,4.20
2017-04-19T07:15:02.664Z,4.20
2017-04-19T07:16:02.333Z,3.90
2017-04-19T07:17:01.954Z,3.80
2017-04-19T07:18:01.573Z,3.70
2017-04-19T07:19:01.217Z,3.80
2017-04-19T07:20:00.831Z,4.00
2017-04-19T07:21:00.588Z,4.10
2017-04-19T07:22:01.032Z,4.20
2017-04-19T07:23:00.662Z,4.30
2017-04-19T07:24:00.279Z,4.30
2017-04-19T07:24:59.964Z,4.20
2017-04-19T07:25:59.651Z,4.20
2017-04-19T07:26:59.331Z,4.20
2017-04-19T07:27:59.018Z,4.20
2017-04-19T07:28:58.736Z,4.40
2017-04-19T07:29:58.371Z,4.50
2017-04-19T07:30:58.083Z,4.80
2017-04-19T07:31:57.717Z,5.00
2017-04-19T07:32:57.400Z,4.90
2017-04-19T07:33:57.118Z,4.90
2017-04-19T07:34:56.761Z,4.80
2017-04-19T07:35:56.381Z,4.70
2017-04-19T07:36:56.037Z,4.60
2017-04-19T07:37:55.766Z,4.50
2017-04-19T07:38:55.501Z,4.50
2017-04-19T07:39:55.180Z,4.70
2017-04-19T07:40:55.094Z,4.80
2017-04-19T07:41:54.721Z,4.80
2017-04-19T07:42:54.347Z,4.90
2017-04-19T07:43:53.972Z,4.90
2017-04-19T07:44:53.604Z,5.00
2017-04-19T07:45:53.274Z,5.20
2017-04-19T07:46:52.892Z,5.20
2017-04-19T07:47:52.501Z,5.40
2017-04-19T07:48:52.102Z,5.50
2017-04-19T07:49:51.752Z,5.40
2017-04-19T07:50:51.468Z,5.30
2017-04-19T07:51:51.143Z,5.40
2017-04-19T07:52:50.766Z,5.50
2017-04-19T07:53:50.383Z,5.40
2017-04-19T07:54:50.124Z,5.30
2017-04-19T07:55:50.488Z,5.20
2017-04-19T07:56:50.101Z,5.30
2017-04-19T07:57:49.799Z,5.30
2017-04-19T07:58:50.204Z,5.40
2017-04-19T07:59:49.840Z,5.40
2017-04-19T08:00:50.196Z,5.50
2017-04-19T08:01:49.843Z,5.70
2017-04-19T08:02:49.508Z,5.70
2017-04-19T08:03:49.141Z,5.70
2017-04-19T08:04:48.796Z,5.60
2017-04-19T08:05:48.416Z,5.70
2017-04-19T08:06:48.033Z,5.70
2017-04-19T08:07:47.773Z,5.80
2017-04-19T08:08:47.441Z,5.70
2017-04-19T08:09:47.071Z,5.70
2017-04-19T08:10:46.685Z,5.60
2017-04-19T08:11:46.309Z,5.70
2017-04-19T08:12:45.925Z,5.80
2017-04-19T08:13:46.369Z,5.90
2017-04-19T08:14:46.048Z,5.90
2017-04-19T08:15:45.757Z,5.90
2017-04-19T08:16:45.364Z,6.00
2017-04-19T08:17:44.971Z,5.90
2017-04-19T08:18:44.582Z,5.90
2017-04-19T08:19:44.207Z,6.00
2017-04-19T08:20:43.873Z,6.00
2017-04-19T08:21:43.495Z,5.80
2017-04-19T08:22:43.128Z,5.70
2017-04-19T08:23:42.758Z,5.90
2017-04-19T08:24:42.408Z,6.10
2017-04-19T08:25:42.181Z,6.00
2017-04-19T08:26:41.864Z,5.80
2017-04-19T08:27:41.530Z,5.80
2017-04-19T08:28:41.165Z,6.00
2017-04-19T08:29:40.898Z,6.40
2017-04-19T08:30:40.560Z,6.80
2017-04-19T08:31:40.215Z,6.90
2017-04-19T08:32:39.995Z,6.90
2017-04-19T08:33:39.703Z,7.10
2017-04-19T08:34:39.375Z,7.30
2017-04-19T08:35:38.999Z,7.50
2017-04-19T08:36:38.636Z,7.50
2017-04-19T08:37:38.306Z,7.30
2017-04-19T08:38:37.985Z,7.50
2017-04-19T08:39:37.591Z,7.30
2017-04-19T08:40:37.248Z,7.20
2017-04-19T08:41:36.854Z,7.20
2017-04-19T08:42:36.561Z,7.10
2017-04-19T08:43:36.142Z,7.20
2017-04-19T08:44:35.833Z,6.90
2017-04-19T08:45:35.461Z,6.90
2017-04-19T08:46:35.085Z,6.90
2017-04-19T08:47:34.751Z,6.80
2017-04-19T08:48:34.960Z,6.80
2017-04-19T08:49:34.597Z,6.90
2017-04-19T08:50:34.264Z,7.00
2017-04-19T08:51:34.612Z,7.00
2017-04-19T08:52:34.243Z,7.10
2017-04-19T08:53:33.861Z,7.00
2017-04-19T08:54:34.224Z,6.90
2017-04-19T08:55:33.886Z,7.00
2017-04-19T08:56:33.556Z,7.10
2017-04-19T08:57:33.269Z,7.20
2017-04-19T08:58:32.910Z,7.40
2017-04-19T08:59:32.584Z,7.30
2017-04-19T09:00:32.250Z,7.30
2017-04-19T09:01:32.008Z,7.30
2017-04-19T09:02:31.763Z,7.40
2017-04-19T09:03:31.396Z,7.50
2017-04-19T09:04:31.021Z,7.60
2017-04-19T09:05:30.754Z,7.90
2017-04-19T09:07:30.199Z,7.90
2017-04-19T09:08:29.952Z,7.90
2017-04-19T09:09:29.868Z,7.90
2017-04-19T09:10:29.529Z,7.80
2017-04-19T09:11:29.189Z,7.80
2017-04-19T09:12:28.798Z,7.80
2017-04-19T09:13:28.412Z,8.00
2017-04-19T09:14:28.141Z,7.90
2017-04-19T09:15:27.788Z,7.90
2017-04-19T09:16:27.427Z,7.70
2017-04-19T09:17:27.140Z,7.70
2017-04-19T09:18:26.760Z,7.60
2017-04-19T09:19:26.388Z,7.40
2017-04-19T09:20:26.130Z,7.50
2017-04-19T09:21:25.795Z,7.30
2017-04-19T09:22:25.429Z,7.20
2017-04-19T09:23:25.079Z,7.20
2017-04-19T09:24:24.741Z,7.30
2017-04-19T09:25:24.361Z,7.40
2017-04-19T09:26:24.113Z,7.50
2017-04-19T09:27:24.485Z,7.60
2017-04-19T09:28:24.118Z,7.80
2017-04-19T09:29:23.753Z,7.80
2017-04-19T09:30:23.376Z,7.70
2017-04-19T09:31:23.028Z,7.70
2017-04-19T09:32:22.784Z,7.70
2017-04-19T09:33:22.389Z,7.90
2017-04-19T09:34:22.015Z,7.90
2017-04-19T09:35:21.722Z,7.90
2017-04-19T09:36:21.404Z,7.70
2017-04-19T09:37:21.023Z,7.80
2017-04-19T09:38:20.672Z,8.00
2017-04-19T09:39:20.333Z,8.20
2017-04-19T09:40:19.950Z,8.10
2017-04-19T09:41:19.551Z,8.20
2017-04-19T09:42:19.152Z,8.10
2017-04-19T09:43:18.769Z,8.20
2017-04-19T09:44:18.434Z,8.30
2017-04-19T09:45:18.080Z,8.10
2017-04-19T09:46:18.439Z,8.10
2017-04-19T09:47:18.071Z,8.30
2017-04-19T09:48:17.701Z,8.30
2017-04-19T09:49:17.387Z,7.80
2017-04-19T09:50:17.065Z,7.90
2017-04-19T09:51:16.777Z,8.00
2017-04-19T09:52:17.159Z,8.10
2017-04-19T09:53:16.889Z,8.00
2017-04-19T09:54:16.511Z,8.10
2017-04-19T09:55:16.253Z,7.90
2017-04-19T09:56:15.934Z,7.70
2017-04-19T09:57:15.572Z,7.50
2017-04-19T09:58:15.191Z,7.30
2017-04-19T09:59:14.827Z,7.30
2017-04-19T10:00:14.427Z,7.50
2017-04-19T10:01:14.173Z,7.70
2017-04-19T10:02:13.927Z,7.80
2017-04-19T10:03:13.572Z,7.90
2017-04-19T10:04:13.995Z,7.90
2017-04-19T10:05:13.658Z,8.00
2017-04-19T10:06:13.280Z,8.10
2017-04-19T10:07:12.908Z,8.40
2017-04-19T10:08:12.670Z,8.30
2017-04-19T10:09:12.286Z,8.40
2017-04-19T10:10:11.944Z,8.30
2017-04-19T10:11:11.573Z,8.30
2017-04-19T10:12:11.210Z,8.20
2017-04-19T10:13:10.901Z,8.10
2017-04-19T10:14:10.797Z,8.20
2017-04-19T10:15:10.419Z,8.00
2017-04-19T10:16:10.036Z,7.90
2017-04-19T10:17:09.635Z,7.90
2017-04-19T10:18:09.304Z,7.90
2017-04-19T10:19:09.046Z,7.80
2017-04-19T10:20:08.817Z,7.80
2017-04-19T10:21:08.452Z,7.80
2017-04-19T10:22:08.096Z,7.70
2017-04-19T10:23:07.721Z,7.60
2017-04-19T10:24:07.343Z,7.50
2017-04-19T10:25:06.958Z,7.20
2017-04-19T10:26:06.648Z,7.20
2017-04-19T10:27:06.428Z,7.10
2017-04-19T10:28:06.041Z,6.90
2017-04-19T10:29:05.669Z,6.90
2017-04-19T10:30:05.298Z,7.00
2017-04-19T10:31:05.018Z,7.00
2017-04-19T10:32:04.689Z,7.10
2017-04-19T10:33:04.317Z,7.20
2017-04-19T10:34:03.958Z,7.30
2017-04-19T10:35:04.339Z,7.20
2017-04-19T10:36:03.981Z,7.30
2017-04-19T10:37:04.417Z,7.40
2017-04-19T10:38:04.033Z,7.50
2017-04-19T10:39:03.784Z,7.50
2017-04-19T10:40:03.421Z,7.30
2017-04-19T10:41:03.127Z,7.20
2017-04-19T10:42:02.771Z,7.00
2017-04-19T10:43:02.431Z,6.80
2017-04-19T10:44:02.054Z,6.90
2017-04-19T10:45:01.715Z,7.10
2017-04-19T10:46:07.276Z,7.10
2017-04-19T10:47:06.880Z,7.30
2017-04-19T10:48:06.645Z,7.50
2017-04-19T10:49:06.267Z,7.70
2017-04-19T10:50:05.913Z,7.70
2017-04-19T10:51:05.581Z,7.70
2017-04-19T10:52:05.199Z,7.30
2017-04-19T10:53:04.834Z,7.40
2017-04-19T10:54:04.497Z,7.40
2017-04-19T10:55:04.155Z,7.30
2017-04-19T10:56:03.797Z,7.30
2017-04-19T10:57:03.523Z,7.40
2017-04-19T10:58:03.984Z,7.50
2017-04-19T10:59:03.614Z,7.60
2017-04-19T11:00:03.268Z,7.60
2017-04-19T11:01:02.883Z,7.40
2017-04-19T11:02:02.520Z,7.30
2017-04-19T11:03:02.159Z,7.20
2017-04-19T11:04:01.766Z,7.30
2017-04-19T11:05:01.384Z,7.30
2017-04-19T11:06:01.113Z,7.40
2017-04-19T11:07:00.757Z,7.40
2017-04-19T11:08:00.380Z,7.40
2017-04-19T11:09:00.107Z,7.40
2017-04-19T11:09:59.768Z,7.30
2017-04-19T11:10:59.506Z,7.10
2017-04-19T11:11:59.925Z,7.10
2017-04-19T11:12:59.648Z,7.20
2017-04-19T11:13:59.276Z,7.10
2017-04-19T11:14:58.937Z,7.20
2017-04-19T11:15:58.552Z,7.10
2017-04-19T11:16:58.245Z,7.10
2017-04-19T11:17:57.863Z,7.30
2017-04-19T11:18:57.489Z,7.20
2017-04-19T11:19:57.159Z,7.40
2017-04-19T11:20:56.776Z,7.40
2017-04-19T11:21:56.491Z,7.40
2017-04-19T11:22:56.109Z,7.70
2017-04-19T11:23:55.825Z,7.80
2017-04-19T11:24:55.460Z,7.70
2017-04-19T11:25:55.237Z,7.60
2017-04-19T11:26:54.858Z,7.50
2017-04-19T11:27:54.682Z,7.40
2017-04-19T11:28:55.112Z,7.30
2017-04-19T11:29:54.708Z,7.40
2017-04-19T11:30:54.336Z,7.50
2017-04-19T11:31:53.978Z,7.70
2017-04-19T11:32:53.685Z,7.80
2017-04-19T11:33:54.095Z,7.80
2017-04-19T11:34:53.743Z,7.90
2017-04-19T11:35:53.395Z,7.90
2017-04-19T11:36:53.040Z,8.00
2017-04-19T11:37:52.664Z,7.70
2017-04-19T11:38:52.310Z,7.70
2017-04-19T11:39:51.931Z,7.70
2017-04-19T11:40:51.573Z,7.80
2017-04-19T11:41:51.205Z,7.70
2017-04-19T11:42:50.878Z,7.70
2017-04-19T11:43:50.492Z,7.70
2017-04-19T11:44:50.112Z,7.90
2017-04-19T11:45:49.735Z,8.00
2017-04-19T11:46:49.400Z,7.90
2017-04-19T11:47:49.032Z,7.60
2017-04-19T11:48:48.657Z,7.40
2017-04-19T11:49:49.017Z,7.30
2017-04-19T11:50:48.766Z,7.20
2017-04-19T11:51:48.401Z,7.10
2017-04-19T11:52:48.056Z,7.20
2017-04-19T11:53:47.711Z,7.20
2017-04-19T11:54:47.335Z,7.30
2017-04-19T11:55:46.967Z,7.30
2017-04-19T11:56:46.582Z,7.20
2017-04-19T11:57:46.202Z,7.30
2017-04-19T11:58:45.883Z,7.50
2017-04-19T11:59:45.575Z,7.60
2017-04-19T12:00:45.235Z,7.70
2017-04-19T12:01:44.855Z,7.70
2017-04-19T12:02:44.474Z,7.60
2017-04-19T12:03:44.088Z,7.70
2017-04-19T12:04:43.744Z,7.60
2017-04-19T12:05:43.379Z,7.60
2017-04-19T12:06:43.004Z,7.50
2017-04-19T12:07:42.716Z,7.50
2017-04-19T12:08:43.084Z,7.50
2017-04-19T12:09:42.709Z,7.60
2017-04-19T12:10:42.426Z,7.60
2017-04-19T12:11:42.061Z,7.70
2017-04-19T12:12:41.704Z,7.60
2017-04-19T12:13:41.419Z,7.60
2017-04-19T12:14:41.048Z,7.70
2017-04-19T12:15:40.672Z,7.80
2017-04-19T12:16:40.372Z,7.80
2017-04-19T12:17:39.989Z,7.90
2017-04-19T12:18:39.610Z,8.00
2017-04-19T12:19:39.239Z,7.90
2017-04-19T12:20:38.865Z,7.90
2017-04-19T12:21:38.526Z,8.00
2017-04-19T12:22:38.205Z,8.20
2017-04-19T12:23:37.889Z,8.10
2017-04-19T12:24:37.531Z,8.20
2017-04-19T12:25:37.156Z,8.20
2017-04-19T12:26:36.776Z,8.20
2017-04-19T12:27:36.400Z,8.10
2017-04-19T12:28:36.102Z,7.90
2017-04-19T12:29:35.732Z,7.80
2017-04-19T12:30:35.380Z,7.80
2017-04-19T12:31:35.037Z,7.80
2017-04-19T12:32:34.759Z,7.80
2017-04-19T12:33:34.852Z,7.80
2017-04-19T12:34:34.490Z,7.80
2017-04-19T12:35:34.134Z,7.70
2017-04-19T12:36:33.758Z,7.90
2017-04-19T12:37:34.110Z,8.10
2017-04-19T12:38:33.738Z,8.30
2017-04-19T12:39:33.474Z,8.30
2017-04-19T12:40:33.154Z,8.20
2017-04-19T12:41:32.790Z,8.10
2017-04-19T12:42:32.672Z,7.90
2017-04-19T12:43:33.059Z,7.80
2017-04-19T12:44:32.685Z,7.60
2017-04-19T12:45:33.097Z,7.60
2017-04-19T12:46:32.723Z,7.50
2017-04-19T12:47:32.348Z,7.30
2017-04-19T12:48:31.993Z,7.40
2017-04-19T12:49:31.628Z,7.30
2017-04-19T12:50:31.276Z,7.40
2017-04-19T12:51:30.975Z,7.50
2017-04-19T12:52:30.677Z,7.70
2017-04-19T12:53:31.034Z,7.90
2017-04-19T12:54:30.672Z,8.00
2017-04-19T12:55:30.296Z,8.00
2017-04-19T12:56:29.925Z,8.00
2017-04-19T12:57:29.565Z,7.90
2017-04-19T12:58:29.278Z,7.90
2017-04-19T12:59:28.889Z,8.10
2017-04-19T13:00:28.546Z,8.20
2017-04-19T13:01:28.176Z,8.20
2017-04-19T13:02:27.820Z,8.20
2017-04-19T13:03:27.532Z,8.10
2017-04-19T13:04:27.217Z,8.00
2017-04-19T13:05:27.575Z,7.80
2017-04-19T13:06:27.210Z,7.90
2017-04-19T13:07:26.892Z,7.90
2017-04-19T13:08:26.532Z,8.00
2017-04-19T13:09:26.235Z,8.00
2017-04-19T13:10:28.127Z,8.00
2017-04-19T13:11:27.751Z,7.90
2017-04-19T13:12:27.354Z,7.90
2017-04-19T13:13:26.972Z,7.90
2017-04-19T13:14:26.639Z,7.70
2017-04-19T13:15:26.287Z,7.70